createdAt,value
2018-01-22T00:01:11.495Z,81.40
2018-01-22T00:03:38.784Z,81.90
2018-01-22T00:06:05.329Z,82.00
2018-01-22T00:08:31.678Z,83.20
2018-01-22T00:10:57.946Z,83.50
2018-01-22T00:13:24.239Z,83.40
2018-01-22T00:15:50.511Z,83.00
2018-01-22T00:18:16.774Z,83.50
2018-01-22T00:20:43.093Z,83.50
2018-01-22T00:23:09.418Z,83.40
2018-01-22T00:25:35.736Z,83.20
2018-01-22T00:28:02.156Z,82.80
2018-01-22T00:30:28.529Z,84.40
2018-01-22T00:32:56.209Z,86.60
2018-01-22T00:35:22.571Z,86.30
2018-01-22T00:37:48.842Z,86.10
2018-01-22T00:40:15.102Z,86.80
2018-01-22T00:42:41.358Z,87.10
2018-01-22T00:45:07.814Z,87.30
2018-01-22T00:47:34.075Z,87.80
2018-01-22T00:50:00.347Z,87.90
2018-01-22T00:52:26.599Z,87.90
2018-01-22T00:54:53.592Z,88.70
2018-01-22T00:57:19.882Z,88.40
2018-01-22T00:59:46.166Z,88.60
2018-01-22T01:02:12.466Z,88.90
2018-01-22T01:04:39.478Z,90.10
2018-01-22T01:07:05.751Z,89.20
2018-01-22T01:09:32.091Z,89.00
2018-01-22T01:11:58.375Z,89.00
2018-01-22T01:14:24.656Z,89.10
2018-01-22T01:16:51.658Z,89.70
2018-01-22T01:19:17.934Z,89.20
2018-01-22T01:21:44.232Z,88.90
2018-01-22T01:24:11.255Z,89.60
2018-01-22T01:26:38.327Z,89.90
2018-01-22T01:29:04.611Z,88.90
2018-01-22T01:31:31.623Z,89.60
2018-01-22T01:33:57.911Z,89.00
2018-01-22T01:36:24.179Z,88.90
2018-01-22T01:38:51.203Z,89.90
2018-01-22T01:41:17.486Z,89.10
2018-01-22T01:43:43.762Z,89.30
2018-01-22T01:46:10.067Z,89.50
2018-01-22T01:48:36.337Z,89.00
2018-01-22T01:51:02.640Z,89.60
2018-01-22T01:53:28.936Z,89.10
2018-01-22T01:55:55.207Z,89.10
2018-01-22T01:58:22.230Z,89.50
2018-01-22T02:00:49.281Z,89.80
2018-01-22T02:03:15.583Z,89.60
2018-01-22T02:05:42.602Z,89.70
2018-01-22T02:08:08.936Z,88.80
2018-01-22T02:10:35.977Z,89.40
2018-01-22T02:13:02.994Z,89.00
2018-01-22T02:15:29.306Z,89.10
2018-01-22T02:17:56.317Z,89.80
2018-01-22T02:20:22.614Z,89.50
2018-01-22T02:22:49.049Z,89.50
2018-01-22T02:25:15.318Z,89.90
2018-01-22T02:27:41.618Z,89.40
2018-01-22T02:30:08.624Z,89.80
2018-01-22T02:32:34.905Z,89.10
2018-01-22T02:35:01.202Z,89.40
2018-01-22T02:37:27.465Z,89.30
2018-01-22T02:39:53.734Z,89.50
2018-01-22T02:42:20.039Z,89.50
2018-01-22T02:44:46.307Z,89.20
2018-01-22T02:47:12.570Z,89.60
2018-01-22T02:49:38.854Z,89.20
2018-01-22T02:52:05.852Z,90.10
2018-01-22T02:54:32.135Z,89.30
2018-01-22T02:56:59.177Z,90.10
2018-01-22T02:59:25.446Z,90.10
2018-01-22T03:01:51.750Z,90.00
2018-01-22T03:04:18.024Z,89.70
2018-01-22T03:06:44.943Z,89.40
2018-01-22T03:09:11.238Z,89.50
2018-01-22T03:11:37.527Z,90.10
2018-01-22T03:14:03.835Z,89.70
2018-01-22T03:16:30.089Z,89.90
2018-01-22T03:18:57.088Z,90.20
2018-01-22T03:21:23.391Z,89.90
2018-01-22T03:23:49.685Z,90.00
2018-01-22T03:26:15.969Z,90.20
2018-01-22T03:28:42.260Z,90.10
2018-01-22T03:31:08.535Z,90.00
2018-01-22T03:33:34.840Z,90.10
2018-01-22T03:36:01.106Z,90.20
2018-01-22T03:38:27.393Z,90.30
2018-01-22T03:40:53.654Z,90.30
2018-01-22T03:43:20.668Z,90.50
2018-01-22T03:45:46.962Z,90.20
2018-01-22T03:48:13.253Z,90.30
2018-01-22T03:50:39.547Z,90.30
2018-01-22T03:53:05.818Z,90.20
2018-01-22T03:55:32.111Z,90.50
2018-01-22T03:57:58.429Z,90.30
2018-01-22T04:00:24.711Z,90.10
2018-01-22T04:02:51.002Z,90.00
2018-01-22T04:05:17.270Z,90.10
2018-01-22T04:07:43.530Z,90.20
2018-01-22T04:10:10.562Z,90.10
2018-01-22T04:12:37.581Z,90.40
2018-01-22T04:15:03.882Z,90.00
2018-01-22T04:17:30.141Z,90.20
2018-01-22T04:19:56.406Z,90.10
2018-01-22T04:22:22.689Z,90.20
2018-01-22T04:24:48.981Z,90.00
2018-01-22T04:27:15.256Z,90.00
2018-01-22T04:29:41.549Z,90.20
2018-01-22T04:32:07.808Z,90.20
2018-01-22T04:34:34.970Z,90.40
2018-01-22T04:37:01.222Z,90.20
2018-01-22T04:39:27.522Z,90.20
2018-01-22T04:41:53.774Z,90.00
2018-01-22T04:44:20.033Z,90.30
2018-01-22T04:46:46.313Z,90.30
2018-01-22T04:49:13.312Z,90.30
2018-01-22T04:51:39.612Z,90.10
2018-01-22T04:54:05.888Z,90.10
2018-01-22T04:56:32.170Z,89.70
2018-01-22T04:58:58.455Z,90.00
2018-01-22T05:01:24.710Z,89.90
2018-01-22T05:03:51.052Z,90.10
2018-01-22T05:06:17.309Z,90.10
2018-01-22T05:08:43.566Z,90.00
2018-01-22T05:11:10.589Z,89.70
2018-01-22T05:13:36.862Z,90.00
2018-01-22T05:16:03.146Z,89.90
2018-01-22T05:18:30.167Z,90.40
2018-01-22T05:20:57.199Z,90.40
2018-01-22T05:23:24.258Z,90.40
2018-01-22T05:25:50.526Z,90.20
2018-01-22T05:28:16.807Z,90.10
2018-01-22T05:30:43.094Z,90.40
2018-01-22T05:33:09.359Z,90.20
2018-01-22T05:35:35.641Z,90.30
2018-01-22T05:38:01.929Z,90.00
2018-01-22T05:40:28.983Z,90.30
2018-01-22T05:42:55.259Z,90.10
2018-01-22T05:45:22.260Z,90.50
2018-01-22T05:47:48.550Z,90.20
2018-01-22T05:50:14.833Z,90.30
2018-01-22T05:52:41.878Z,90.80
2018-01-22T05:55:08.140Z,90.60
2018-01-22T05:57:34.448Z,90.40
2018-01-22T06:00:00.789Z,90.50
2018-01-22T06:02:27.101Z,90.70
2018-01-22T06:04:53.388Z,90.50
2018-01-22T06:07:19.709Z,90.50
2018-01-22T06:09:46.010Z,90.70
2018-01-22T06:12:12.345Z,90.70
2018-01-22T06:14:38.606Z,90.90
2018-01-22T06:17:05.641Z,90.70
2018-01-22T06:19:32.686Z,90.80
2018-01-22T06:21:58.999Z,90.50
2018-01-22T06:24:25.294Z,90.50
2018-01-22T06:26:52.309Z,90.80
2018-01-22T06:29:18.631Z,90.60
2018-01-22T06:31:44.889Z,90.40
2018-01-22T06:34:11.172Z,90.70
2018-01-22T06:36:38.197Z,91.30
2018-01-22T06:39:04.488Z,90.50
2018-01-22T06:41:30.781Z,90.70
2018-01-22T06:43:57.042Z,90.80
2018-01-22T06:46:23.410Z,90.90
2018-01-22T06:48:49.769Z,91.00
2018-01-22T06:51:16.056Z,91.10
2018-01-22T06:53:42.327Z,90.90
2018-01-22T06:56:09.394Z,91.20
2018-01-22T06:58:35.674Z,91.10
2018-01-22T07:01:02.847Z,91.00
2018-01-22T07:03:29.143Z,90.70
2018-01-22T07:05:55.416Z,91.00
2018-01-22T07:08:21.703Z,91.10
2018-01-22T07:10:47.976Z,91.00
2018-01-22T07:13:14.228Z,91.00
2018-01-22T07:15:40.518Z,91.10
2018-01-22T07:18:06.781Z,91.20
2018-01-22T07:20:33.068Z,91.20
2018-01-22T07:22:59.356Z,91.20
2018-01-22T07:25:25.617Z,91.30
2018-01-22T07:27:51.893Z,91.30
2018-01-22T07:30:18.202Z,91.60
2018-01-22T07:32:45.015Z,91.70
2018-01-22T07:35:12.069Z,92.10
2018-01-22T07:37:39.423Z,91.80
2018-01-22T07:40:05.713Z,91.70
2018-01-22T07:42:32.674Z,91.60
2018-01-22T07:45:00.226Z,91.30
2018-01-22T07:47:27.202Z,90.80
2018-01-22T07:49:54.212Z,91.20
2018-01-22T07:52:20.599Z,90.80
2018-01-22T07:54:47.374Z,90.70
2018-01-22T07:57:15.210Z,90.60
2018-01-22T07:59:41.861Z,90.80
2018-01-22T08:02:09.194Z,90.70
2018-01-22T08:04:39.275Z,90.80
2018-01-22T08:07:05.545Z,91.00
2018-01-22T08:09:32.523Z,90.80
2018-01-22T08:11:58.789Z,91.00
2018-01-22T08:14:25.063Z,90.60
2018-01-22T08:16:51.355Z,90.80
2018-01-22T08:19:17.625Z,90.70
2018-01-22T08:21:44.013Z,91.00
2018-01-22T08:24:11.381Z,90.80
2018-01-22T08:26:37.778Z,90.90
2018-01-22T08:29:05.284Z,91.10
2018-01-22T08:31:32.002Z,91.20
2018-01-22T08:33:58.298Z,90.60
2018-01-22T08:36:24.905Z,90.90
2018-01-22T08:38:51.168Z,90.90
2018-01-22T08:41:17.465Z,90.80
2018-01-22T08:43:43.760Z,90.70
2018-01-22T08:46:10.045Z,90.70
2018-01-22T08:48:36.301Z,90.70
2018-01-22T08:51:03.539Z,90.90
2018-01-22T08:53:30.369Z,90.50
2018-01-22T08:55:56.626Z,90.60
2018-01-22T08:58:22.914Z,90.70
2018-01-22T09:00:49.235Z,90.80
2018-01-22T09:03:15.497Z,90.60
2018-01-22T09:05:42.530Z,90.80
2018-01-22T09:08:09.525Z,90.90
2018-01-22T09:10:35.800Z,90.70
2018-01-22T09:13:02.086Z,90.50
2018-01-22T09:15:29.166Z,90.80
2018-01-22T09:17:56.134Z,90.80
2018-01-22T09:20:22.488Z,90.80
2018-01-22T09:22:48.793Z,90.70
2018-01-22T09:25:15.813Z,91.40
2018-01-22T09:27:42.805Z,91.40
2018-01-22T09:30:09.077Z,91.10
2018-01-22T09:32:35.365Z,91.30
2018-01-22T09:35:03.889Z,91.40
2018-01-22T09:37:30.352Z,91.90
2018-01-22T09:39:56.683Z,91.10
2018-01-22T09:42:23.353Z,91.60
2018-01-22T09:44:49.979Z,91.40
2018-01-22T09:47:16.261Z,91.00
2018-01-22T09:49:42.749Z,90.90
2018-01-22T09:52:09.365Z,91.00
2018-01-22T09:54:35.789Z,91.20
2018-01-22T09:57:02.813Z,91.40
2018-01-22T09:59:29.165Z,91.10
2018-01-22T10:01:56.846Z,91.10
2018-01-22T10:04:23.246Z,90.90
2018-01-22T10:06:50.245Z,90.50
2018-01-22T10:09:17.960Z,90.50
2018-01-22T10:11:44.278Z,90.30
2018-01-22T10:14:12.762Z,90.30
2018-01-22T10:16:39.247Z,90.30
2018-01-22T10:19:05.630Z,90.20
2018-01-22T10:21:38.809Z,90.40
2018-01-22T10:24:06.801Z,90.60
2018-01-22T10:26:33.433Z,90.40
2018-01-22T10:28:59.703Z,90.40
2018-01-22T10:31:26.715Z,90.50
2018-01-22T10:33:55.253Z,91.10
2018-01-22T10:36:22.830Z,90.60
2018-01-22T10:38:49.832Z,91.10
2018-01-22T10:41:16.130Z,90.80
2018-01-22T10:43:42.995Z,91.20
2018-01-22T10:46:09.276Z,90.90
2018-01-22T10:48:35.610Z,90.70
2018-01-22T10:51:01.949Z,91.00
2018-01-22T10:53:28.941Z,91.40
2018-01-22T10:55:55.538Z,91.00
2018-01-22T10:58:21.874Z,91.10
2018-01-22T11:00:48.201Z,91.30
2018-01-22T11:03:14.509Z,91.10
2018-01-22T11:05:40.772Z,90.90
2018-01-22T11:08:07.082Z,91.20
2018-01-22T11:10:34.085Z,91.90
2018-01-22T11:13:00.393Z,91.60
2018-01-22T11:15:32.810Z,91.50
2018-01-22T11:17:59.092Z,91.30
2018-01-22T11:20:25.469Z,91.40
2018-01-22T11:22:51.854Z,91.10
2018-01-22T11:25:18.180Z,91.00
2018-01-22T11:27:44.510Z,90.90
2018-01-22T11:30:10.866Z,90.50
2018-01-22T11:32:37.179Z,89.90
2018-01-22T11:35:03.461Z,89.70
2018-01-22T11:37:29.785Z,90.00
2018-01-22T11:39:56.057Z,90.10
2018-01-22T11:42:23.057Z,90.00
2018-01-22T11:44:49.360Z,89.50
2018-01-22T11:47:15.852Z,89.10
2018-01-22T11:49:42.142Z,88.40
2018-01-22T11:52:10.815Z,90.30
2018-01-22T11:54:38.509Z,90.10
2018-01-22T11:57:05.262Z,89.70
2018-01-22T11:59:31.952Z,89.90
2018-01-22T12:01:58.229Z,90.10
2018-01-22T12:04:25.385Z,90.60
2018-01-22T12:06:51.735Z,90.50
2018-01-22T12:09:18.049Z,90.40
2018-01-22T12:11:48.680Z,90.40
2018-01-22T12:14:15.936Z,90.80
2018-01-22T12:16:42.604Z,90.60
2018-01-22T12:19:08.866Z,90.00
2018-01-22T12:21:36.055Z,90.40
2018-01-22T12:24:02.953Z,90.60
2018-01-22T12:26:30.019Z,90.00
2018-01-22T12:28:56.266Z,89.80
2018-01-22T12:31:24.003Z,89.60
2018-01-22T12:33:51.029Z,89.30
2018-01-22T12:36:17.298Z,89.30
2018-01-22T12:38:43.881Z,89.90
2018-01-22T12:41:11.113Z,90.10
2018-01-22T12:43:37.387Z,89.60
2018-01-22T12:46:04.033Z,90.10
2018-01-22T12:48:30.297Z,90.40
2018-01-22T12:50:57.406Z,90.40
2018-01-22T12:53:23.792Z,90.20
2018-01-22T12:55:50.067Z,90.20
2018-01-22T12:58:17.091Z,89.80
2018-01-22T13:00:43.985Z,89.00
2018-01-22T13:03:10.298Z,88.60
2018-01-22T13:05:37.241Z,88.80
2018-01-22T13:08:03.606Z,89.10
2018-01-22T13:10:31.238Z,88.50
2018-01-22T13:12:58.246Z,88.30
2018-01-22T13:15:24.539Z,88.10
2018-01-22T13:17:51.393Z,87.00
2018-01-22T13:20:18.467Z,88.60
2018-01-22T13:22:44.818Z,88.10
2018-01-22T13:25:12.776Z,86.60
2018-01-22T13:27:40.344Z,87.00
2018-01-22T13:30:06.820Z,85.90
2018-01-22T13:32:33.838Z,84.70
2018-01-22T13:35:02.122Z,85.40
2018-01-22T13:37:28.418Z,85.70
2018-01-22T13:40:00.708Z,86.30
2018-01-22T13:42:30.198Z,86.80
2018-01-22T13:44:56.485Z,86.90
2018-01-22T13:47:22.768Z,88.40
2018-01-22T13:49:49.144Z,88.50
2018-01-22T13:52:15.452Z,88.30
2018-01-22T13:54:41.776Z,89.30
2018-01-22T13:57:08.059Z,89.50
2018-01-22T13:59:34.333Z,89.20
2018-01-22T14:02:00.602Z,89.80
2018-01-22T14:04:27.328Z,89.30
2018-01-22T14:06:53.609Z,90.00
2018-01-22T14:09:19.895Z,90.20
2018-01-22T14:11:46.181Z,90.40
2018-01-22T14:14:12.443Z,90.40
2018-01-22T14:16:39.490Z,91.00
2018-01-22T14:19:06.490Z,91.00
2018-01-22T14:21:32.761Z,91.10
2018-01-22T14:23:59.172Z,90.70
2018-01-22T14:26:25.437Z,91.10
2018-01-22T14:28:51.726Z,90.90
2018-01-22T14:31:18.014Z,91.00
2018-01-22T14:33:44.341Z,91.20
2018-01-22T14:36:10.657Z,91.00
2018-01-22T14:38:36.922Z,91.00
2018-01-22T14:41:03.206Z,91.30
2018-01-22T14:43:29.469Z,91.40
2018-01-22T14:45:56.476Z,91.60
2018-01-22T14:48:22.780Z,91.40
2018-01-22T14:50:49.069Z,91.50
2018-01-22T14:53:15.346Z,91.70
2018-01-22T14:55:42.510Z,92.00
2018-01-22T14:58:08.837Z,91.90
2018-01-22T15:00:35.146Z,91.40
2018-01-22T15:03:01.396Z,91.40
2018-01-22T15:05:27.737Z,91.70
2018-01-22T15:07:54.021Z,91.60
2018-01-22T15:10:20.290Z,91.60
2018-01-22T15:12:46.569Z,91.60
2018-01-22T15:15:13.258Z,91.50
2018-01-22T15:20:15.484Z,92.20
2018-01-22T15:22:44.488Z,91.80
2018-01-22T15:25:12.224Z,92.00
2018-01-22T15:27:39.101Z,92.20
2018-01-22T15:30:05.526Z,92.70
2018-01-22T15:32:32.178Z,92.20
2018-01-22T15:35:05.213Z,92.30
2018-01-22T15:37:32.782Z,92.70
2018-01-22T15:39:59.454Z,92.50
2018-01-22T15:42:26.772Z,92.70
2018-01-22T15:44:53.064Z,92.30
2018-01-22T15:47:19.358Z,92.60
2018-01-22T15:49:46.034Z,92.40
2018-01-22T15:52:13.048Z,92.70
2018-01-22T15:54:39.364Z,92.60
2018-01-22T15:57:05.959Z,92.50
2018-01-22T15:59:32.274Z,92.50
2018-01-22T16:01:58.540Z,92.50
2018-01-22T16:04:24.955Z,92.50
2018-01-22T16:06:51.301Z,92.90
2018-01-22T16:09:17.558Z,92.80
2018-01-22T16:11:43.869Z,92.70
2018-01-22T16:14:10.156Z,92.90
2018-01-22T16:16:37.315Z,92.80
2018-01-22T16:19:03.603Z,92.90
2018-01-22T16:21:29.873Z,92.90
2018-01-22T16:23:56.177Z,93.10
2018-01-22T16:26:22.437Z,93.10
2018-01-22T16:28:49.437Z,93.50
2018-01-22T16:31:15.718Z,93.10
2018-01-22T16:33:42.004Z,93.20
2018-01-22T16:36:08.342Z,93.20
2018-01-22T16:38:34.666Z,93.50
2018-01-22T16:41:00.942Z,93.60
2018-01-22T16:43:27.978Z,93.80
2018-01-22T16:45:54.998Z,93.80
2018-01-22T16:48:21.997Z,93.80
2018-01-22T16:50:50.916Z,93.60
2018-01-22T16:53:18.177Z,93.80
2018-01-22T16:55:44.596Z,93.80
2018-01-22T16:58:11.640Z,93.70
2018-01-22T17:00:38.423Z,93.70
2018-01-22T17:03:04.886Z,93.50
2018-01-22T17:05:31.793Z,93.80
2018-01-22T17:07:58.052Z,93.50
2018-01-22T17:10:24.634Z,93.90
2018-01-22T17:12:51.867Z,93.70
2018-01-22T17:15:18.284Z,94.20
2018-01-22T17:17:45.180Z,94.00
2018-01-22T17:20:11.705Z,94.10
2018-01-22T17:22:39.440Z,94.00
2018-01-22T17:25:06.394Z,93.70
2018-01-22T17:27:32.713Z,94.30
2018-01-22T17:29:59.730Z,94.40
2018-01-22T17:32:26.084Z,94.00
2018-01-22T17:34:53.149Z,94.10
2018-01-22T17:37:19.473Z,94.50
2018-01-22T17:39:46.459Z,94.20
2018-01-22T17:42:13.194Z,94.60
2018-01-22T17:44:40.137Z,94.50
2018-01-22T17:47:06.569Z,94.50
2018-01-22T17:49:34.081Z,94.80
2018-01-22T17:52:00.971Z,94.40
2018-01-22T17:54:27.300Z,94.80
2018-01-22T17:56:54.903Z,94.90
2018-01-22T17:59:21.330Z,94.80
2018-01-22T18:01:48.238Z,94.60
2018-01-22T18:04:15.008Z,95.00
2018-01-22T18:06:41.921Z,94.80
2018-01-22T18:09:08.193Z,94.90
2018-01-22T18:11:34.445Z,94.80
2018-01-22T18:14:00.739Z,94.90
2018-01-22T18:16:27.005Z,94.90
2018-01-22T18:18:53.316Z,94.90
2018-01-22T18:21:19.578Z,95.00
2018-01-22T18:23:45.859Z,94.80
2018-01-22T18:26:12.212Z,95.00
2018-01-22T18:28:38.485Z,95.20
2018-01-22T18:31:04.823Z,94.90
2018-01-22T18:33:33.758Z,95.00
2018-01-22T18:36:00.084Z,95.10
2018-01-22T18:38:26.422Z,95.20
2018-01-22T18:40:53.579Z,95.60
2018-01-22T18:43:19.927Z,95.10
2018-01-22T18:45:46.203Z,95.30
2018-01-22T18:48:19.686Z,95.30
2018-01-22T18:50:45.957Z,95.20
2018-01-22T18:53:12.234Z,95.30
2018-01-22T18:55:38.569Z,95.20
2018-01-22T18:58:04.852Z,95.50
2018-01-22T19:00:31.165Z,95.40
2018-01-22T19:02:57.431Z,95.50
2018-01-22T19:05:23.701Z,95.50
2018-01-22T19:07:50.006Z,95.50
2018-01-22T19:10:16.293Z,95.60
2018-01-22T19:12:42.594Z,95.80
2018-01-22T19:15:08.857Z,95.70
2018-01-22T19:17:35.129Z,95.70
2018-01-22T19:20:01.419Z,95.90
2018-01-22T19:22:27.697Z,95.90
2018-01-22T19:24:54.829Z,95.60
2018-01-22T19:27:21.756Z,95.70
2018-01-22T19:33:00.309Z,96.00
2018-01-22T19:35:26.711Z,96.00
2018-01-22T19:37:53.379Z,95.80
2018-01-22T19:40:19.976Z,95.90
2018-01-22T19:42:47.109Z,96.40
2018-01-22T19:45:13.560Z,95.90
2018-01-22T19:47:40.092Z,96.10
2018-01-22T19:50:07.557Z,96.90
2018-01-22T19:52:34.088Z,96.20
2018-01-22T19:55:00.543Z,96.10
2018-01-22T19:57:26.843Z,96.40
2018-01-22T19:59:53.427Z,96.20
2018-01-22T20:02:20.077Z,96.10
2018-01-22T20:04:46.439Z,95.90
2018-01-22T20:07:13.466Z,95.80
2018-01-22T20:09:40.709Z,95.20
2018-01-22T20:12:07.880Z,94.80
2018-01-22T20:14:34.303Z,94.40
2018-01-22T20:17:00.755Z,94.00
2018-01-22T20:19:28.118Z,94.10
2018-01-22T20:22:05.798Z,93.90
2018-01-22T20:24:32.086Z,93.90
2018-01-22T20:27:03.908Z,94.10
2018-01-22T20:29:30.666Z,94.00
2018-01-22T20:31:56.958Z,94.10
2018-01-22T20:34:24.476Z,93.80
2018-01-22T20:36:51.899Z,93.90
2018-01-22T20:39:22.784Z,94.10
2018-01-22T20:41:49.161Z,93.50
2018-01-22T20:44:15.458Z,93.40
2018-01-22T20:46:42.129Z,93.80
2018-01-22T20:49:08.946Z,93.50
2018-01-22T20:51:35.855Z,93.30
2018-01-22T20:54:02.844Z,92.90
2018-01-22T20:56:30.346Z,92.80
2018-01-22T20:58:56.641Z,93.20
2018-01-22T21:01:23.502Z,92.90
2018-01-22T21:03:50.730Z,93.20
2018-01-22T21:06:17.175Z,92.70
2018-01-22T21:08:43.609Z,92.80
2018-01-22T21:11:09.878Z,93.00
2018-01-22T21:13:36.634Z,93.20
2018-01-22T21:16:03.713Z,93.70
2018-01-22T21:18:29.995Z,93.10
2018-01-22T21:20:56.472Z,93.40
2018-01-22T21:23:24.161Z,93.00
2018-01-22T21:25:50.445Z,92.70
2018-01-22T21:28:16.754Z,92.60
2018-01-22T21:30:43.681Z,92.60
2018-01-22T21:33:10.049Z,92.00
2018-01-22T21:35:37.001Z,92.30
2018-01-22T21:38:14.321Z,92.10
2018-01-22T21:40:40.801Z,91.60
2018-01-22T21:43:08.289Z,91.70
2018-01-22T21:45:34.784Z,91.10
2018-01-22T21:48:01.061Z,90.70
2018-01-22T21:50:27.529Z,90.60
2018-01-22T21:52:53.805Z,90.20
2018-01-22T21:55:21.288Z,90.00
2018-01-22T21:57:47.708Z,89.40
2018-01-22T22:00:14.171Z,88.70
2018-01-22T22:02:40.482Z,88.60
2018-01-22T22:05:06.813Z,89.00
2018-01-22T22:07:33.816Z,88.20
2018-01-22T22:10:01.149Z,87.70
2018-01-22T22:12:28.020Z,87.20
2018-01-22T22:14:54.450Z,87.30
2018-01-22T22:17:20.900Z,86.50
2018-01-22T22:19:47.242Z,86.70
2018-01-22T22:22:13.738Z,86.00
2018-01-22T22:24:40.021Z,86.60
2018-01-22T22:27:06.326Z,86.60
2018-01-22T22:29:32.898Z,86.60
2018-01-22T22:31:59.378Z,87.10
2018-01-22T22:34:26.040Z,86.00
2018-01-22T22:36:52.313Z,86.30
2018-01-22T22:39:18.963Z,86.90
2018-01-22T22:41:45.629Z,87.00
2018-01-22T22:44:12.250Z,87.30
2018-01-22T22:46:41.511Z,87.00
2018-01-22T22:49:08.133Z,87.00
2018-01-22T22:51:34.757Z,86.40
2018-01-22T22:54:02.573Z,86.50
2018-01-22T22:56:29.119Z,86.10
2018-01-22T22:58:55.689Z,85.90
2018-01-22T23:01:22.537Z,86.20
2018-01-22T23:03:49.249Z,85.30
2018-01-22T23:06:15.733Z,84.40
2018-01-22T23:08:42.060Z,84.20
2018-01-22T23:11:08.348Z,85.00
2018-01-22T23:13:34.601Z,84.70
2018-01-22T23:16:00.945Z,84.70
2018-01-22T23:18:27.201Z,85.00
2018-01-22T23:20:53.523Z,85.00
2018-01-22T23:23:20.044Z,84.70
2018-01-22T23:25:46.509Z,84.30
2018-01-22T23:28:13.772Z,84.60
2018-01-22T23:30:40.143Z,83.10
2018-01-22T23:33:06.920Z,83.80
2018-01-22T23:35:33.388Z,83.00
2018-01-22T23:37:59.810Z,83.20
2018-01-22T23:40:26.936Z,83.90
2018-01-22T23:42:53.274Z,83.30
2018-01-22T23:45:20.860Z,84.00
2018-01-22T23:47:47.259Z,83.40
2018-01-22T23:50:13.660Z,84.30
2018-01-22T23:52:41.080Z,85.10
2018-01-22T23:55:07.372Z,84.20
2018-01-22T23:57:33.770Z,84.10
